Pelican of London — MWAQ — position and weather

sailwx.info

Track history (hours):
 
Tides and Currents Weather Stations Pressure Air Temp Water Temp Dewpoint Dewpoint Depression Visibility Wind Speed Wind Dir Waves Ship Positions

Pelican of London

Ship's website: http://www.adventureundersail.com/

Last reported at 2019-Oct-17 08:48 UTC. Time now 2019-Oct-22 23:34 UTC.
Position N 43°37' W 004°05'.

Length 35 m; draft 4 m.

Type: Other ship. MMSI: 235057366.

Date/timePositionNaut miles runAvg speedWind from/ knotsBaromVisibWave heightAir tempDewpointWater temp
2019-Oct-17 08:48N 43°37' W 004°05'2 6.2
2019-Oct-17 08:30N 43°37' W 004°02'6 6.0
2019-Oct-17 07:33N 43°37' W 003°55'0 5.9
2019-Oct-17 07:30N 43°37' W 003°54'6 5.7
2019-Oct-17 06:32N 43°37' W 003°47'0 5.8
2019-Oct-17 06:30N 43°37' W 003°46'3 5.6
2019-Oct-17 06:00N 43°37' W 003°42'4 5.2
2019-Oct-17 05:18N 43°37' W 003°37'2 5.6
2019-Oct-17 04:59N 43°37' W 003°35'3 5.7
2019-Oct-17 04:30N 43°37' W 003°31'3 5.6
2019-Oct-17 04:00N 43°37' W 003°27'3 5.7
2019-Oct-17 03:30N 43°37' W 003°23'2 5.0
2019-Oct-17 03:00N 43°37' W 003°20'2 4.6
2019-Oct-17 02:30N 43°37' W 003°17'2 4.1
2019-Oct-17 02:00N 43°37' W 003°14'2 4.5
2019-Oct-17 01:30N 43°37' W 003°11'3 5.4
2019-Oct-17 01:00N 43°37' W 003°07'3 5.3
2019-Oct-17 00:31N 43°36' W 003°03'3 5.5
2019-Oct-17 00:00N 43°36' W 002°60'3 5.4
2019-Oct-16 23:30N 43°36' W 002°56'3 5.7
2019-Oct-16 23:01N 43°36' W 002°52'3 5.6
2019-Oct-16 22:30N 43°37' W 002°48'3 5.4
2019-Oct-16 22:00N 43°37' W 002°44'3 5.0
2019-Oct-16 21:30N 43°37' W 002°41'3 5.4
2019-Oct-16 21:00N 43°37' W 002°37'3 5.3
2019-Oct-16 20:30N 43°36' W 002°34'3 5.7
2019-Oct-16 20:00N 43°35' W 002°30'3 5.4
2019-Oct-16 19:30N 43°35' W 002°26'3 5.4
2019-Oct-16 19:00N 43°34' W 002°23'3 5.6
2019-Oct-16 18:30N 43°34' W 002°19'3 5.8
2019-Oct-16 18:00N 43°33' W 002°15'3 6.1
2019-Oct-16 17:30N 43°32' W 002°11'3 6.5
2019-Oct-16 17:00N 43°31' W 002°07'3 6.8
2019-Oct-16 16:30N 43°30' W 002°02'3 6.3
2019-Oct-16 16:00N 43°29' W 001°58'3 6.1
2019-Oct-16 15:30N 43°27' W 001°54'3 5.9
2019-Oct-16 15:00N 43°26' W 001°51'3 5.6
2019-Oct-16 14:30N 43°25' W 001°47'2 2.7
2019-Oct-16 13:56N 43°23' W 001°47'0 0.0
2019-Oct-16 13:29N 43°23' W 001°47'0 0.0
2019-Oct-16 12:59N 43°23' W 001°47'0 0.0
2019-Oct-16 12:29N 43°23' W 001°47'0 0.0
2019-Oct-16 11:56N 43°23' W 001°47'0 0.0
2019-Oct-16 11:29N 43°23' W 001°47'0 0.0
2019-Oct-16 10:59N 43°23' W 001°47'0 0.0
2019-Oct-16 10:29N 43°23' W 001°47'0 0.0
2019-Oct-16 09:59N 43°23' W 001°47'0 0.0
2019-Oct-16 09:29N 43°23' W 001°47'0 0.0
2019-Oct-16 08:59N 43°23' W 001°47'0 0.0
2019-Oct-16 08:29N 43°23' W 001°47'0 0.0
2019-Oct-16 07:59N 43°23' W 001°47'0 0.0
2019-Oct-16 07:29N 43°23' W 001°47'0 0.0
2019-Oct-16 06:59N 43°23' W 001°47'0 0.0
2019-Oct-16 06:29N 43°23' W 001°47'0 0.0
2019-Oct-16 05:59N 43°23' W 001°47'0 0.0
2019-Oct-16 05:29N 43°23' W 001°47'0 0.0
2019-Oct-16 04:59N 43°23' W 001°47'0 0.0
2019-Oct-16 04:29N 43°23' W 001°47'0 0.0
2019-Oct-16 03:59N 43°23' W 001°47'0 0.0
2019-Oct-16 03:29N 43°23' W 001°47'0 0.0
2019-Oct-16 02:59N 43°23' W 001°47'0 0.0
2019-Oct-16 02:29N 43°23' W 001°47'0 0.0
2019-Oct-16 01:56N 43°23' W 001°47'0 0.0
2019-Oct-16 01:29N 43°23' W 001°47'0 0.0
2019-Oct-16 00:59N 43°23' W 001°47'0 0.0
2019-Oct-16 00:29N 43°23' W 001°47'0 0.0
2019-Oct-15 23:59N 43°23' W 001°47'0 0.0
2019-Oct-15 23:29N 43°23' W 001°47'0 0.0
2019-Oct-15 22:59N 43°23' W 001°47'0 0.0
2019-Oct-15 22:29N 43°23' W 001°47'0 0.7
2019-Oct-15 22:01N 43°23' W 001°47'3 5.2
2019-Oct-15 21:30N 43°26' W 001°45'3 5.9
2019-Oct-15 21:00N 43°28' W 001°44'3 5.7
2019-Oct-15 20:30N 43°31' W 001°43'2 4.7
2019-Oct-15 20:00N 43°34' W 001°43'3 5.4
2019-Oct-15 19:30N 43°36' W 001°43'3 5.4
2019-Oct-15 19:00N 43°39' W 001°43'3 5.3
2019-Oct-15 18:31N 43°42' W 001°43'3 5.5
2019-Oct-15 18:00N 43°44' W 001°43'3 6.0
2019-Oct-15 17:30N 43°47' W 001°43'3 5.6
2019-Oct-15 17:00N 43°50' W 001°43'3 6.0
2019-Oct-15 16:30N 43°53' W 001°44'3 6.9
2019-Oct-15 16:00N 43°56' W 001°46'3 6.5
2019-Oct-15 15:30N 43°59' W 001°47'3 6.0
2019-Oct-15 15:00N 44°02' W 001°48'2 4.4
2019-Oct-15 14:30N 44°04' W 001°48'2 4.3
2019-Oct-15 14:00N 44°06' W 001°48'2 4.3
2019-Oct-15 13:30N 44°09' W 001°48'2 3.9
2019-Oct-15 13:00N 44°11' W 001°48'4 3.8
2019-Oct-15 12:03N 44°14' W 001°49'0 3.1
2019-Oct-15 11:55N 44°15' W 001°49'3 3.1
2019-Oct-15 10:59N 44°18' W 001°49'20 4.6
2019-Oct-15 06:37N 44°37' W 001°46'1 4.9
2019-Oct-15 06:30N 44°38' W 001°46'51 4.0
2019-Oct-14 17:43N 45°26' W 001°19'1 3.1
2019-Oct-14 17:25N 45°26' W 001°19'2 2.4
2019-Oct-14 16:47N 45°28' W 001°18'1 2.8
2019-Oct-14 16:26N 45°29' W 001°17'3 4.9
2019-Oct-14 15:47N 45°31' W 001°14'1 4.8
2019-Oct-14 15:30N 45°31' W 001°12'2 4.8
2019-Oct-14 15:00N 45°32' W 001°09'2 4.1
2019-Oct-14 14:30N 45°34' W 001°07'2 3.1
2019-Oct-14 14:00N 45°35' W 001°05'1 3.0
2019-Oct-14 13:30N 45°34' W 001°03'2 5.0
2019-Oct-14 13:00N 45°32' W 001°01'2 4.1
2019-Oct-14 12:30N 45°31' W 000°59'3 6.6
2019-Oct-14 12:00N 45°29' W 000°56'5 8.6
2019-Oct-14 11:29N 45°25' W 000°52'  
Track history (hours):
 
Tides and Currents Weather Stations Pressure Air Temp Water Temp Dewpoint Dewpoint Depression Visibility Wind Speed Wind Dir Waves Ship Positions

Pelican of London

Ship's website: http://www.adventureundersail.com/

Last reported at 2019-Oct-17 08:48 UTC. Time now 2019-Oct-22 23:34 UTC.
Position N 43°37' W 004°05'.

Length 35 m; draft 4 m.

Type: Other ship. MMSI: 235057366.

Date/timePositionNaut miles runAvg speedWind from/ knotsBaromVisibWave heightAir tempDewpointWater temp
2019-Oct-17 08:48N 43°37' W 004°05'2 6.2
2019-Oct-17 08:30N 43°37' W 004°02'6 6.0
2019-Oct-17 07:33N 43°37' W 003°55'0 5.9
2019-Oct-17 07:30N 43°37' W 003°54'6 5.7
2019-Oct-17 06:32N 43°37' W 003°47'0 5.8
2019-Oct-17 06:30N 43°37' W 003°46'3 5.6
2019-Oct-17 06:00N 43°37' W 003°42'4 5.2
2019-Oct-17 05:18N 43°37' W 003°37'2 5.6
2019-Oct-17 04:59N 43°37' W 003°35'3 5.7
2019-Oct-17 04:30N 43°37' W 003°31'3 5.6
2019-Oct-17 04:00N 43°37' W 003°27'3 5.7
2019-Oct-17 03:30N 43°37' W 003°23'2 5.0
2019-Oct-17 03:00N 43°37' W 003°20'2 4.6
2019-Oct-17 02:30N 43°37' W 003°17'2 4.1
2019-Oct-17 02:00N 43°37' W 003°14'2 4.5
2019-Oct-17 01:30N 43°37' W 003°11'3 5.4
2019-Oct-17 01:00N 43°37' W 003°07'3 5.3
2019-Oct-17 00:31N 43°36' W 003°03'3 5.5
2019-Oct-17 00:00N 43°36' W 002°60'3 5.4
2019-Oct-16 23:30N 43°36' W 002°56'3 5.7
2019-Oct-16 23:01N 43°36' W 002°52'3 5.6
2019-Oct-16 22:30N 43°37' W 002°48'3 5.4
2019-Oct-16 22:00N 43°37' W 002°44'3 5.0
2019-Oct-16 21:30N 43°37' W 002°41'3 5.4
2019-Oct-16 21:00N 43°37' W 002°37'3 5.3
2019-Oct-16 20:30N 43°36' W 002°34'3 5.7
2019-Oct-16 20:00N 43°35' W 002°30'3 5.4
2019-Oct-16 19:30N 43°35' W 002°26'3 5.4
2019-Oct-16 19:00N 43°34' W 002°23'3 5.6
2019-Oct-16 18:30N 43°34' W 002°19'3 5.8
2019-Oct-16 18:00N 43°33' W 002°15'3 6.1
2019-Oct-16 17:30N 43°32' W 002°11'3 6.5
2019-Oct-16 17:00N 43°31' W 002°07'3 6.8
2019-Oct-16 16:30N 43°30' W 002°02'3 6.3
2019-Oct-16 16:00N 43°29' W 001°58'3 6.1
2019-Oct-16 15:30N 43°27' W 001°54'3 5.9
2019-Oct-16 15:00N 43°26' W 001°51'3 5.6
2019-Oct-16 14:30N 43°25' W 001°47'2 2.7
2019-Oct-16 13:56N 43°23' W 001°47'0 0.0
2019-Oct-16 13:29N 43°23' W 001°47'0 0.0
2019-Oct-16 12:59N 43°23' W 001°47'0 0.0
2019-Oct-16 12:29N 43°23' W 001°47'0 0.0
2019-Oct-16 11:56N 43°23' W 001°47'0 0.0
2019-Oct-16 11:29N 43°23' W 001°47'0 0.0
2019-Oct-16 10:59N 43°23' W 001°47'0 0.0
2019-Oct-16 10:29N 43°23' W 001°47'0 0.0
2019-Oct-16 09:59N 43°23' W 001°47'0 0.0
2019-Oct-16 09:29N 43°23' W 001°47'0 0.0
2019-Oct-16 08:59N 43°23' W 001°47'0 0.0
2019-Oct-16 08:29N 43°23' W 001°47'0 0.0
2019-Oct-16 07:59N 43°23' W 001°47'0 0.0
2019-Oct-16 07:29N 43°23' W 001°47'0 0.0
2019-Oct-16 06:59N 43°23' W 001°47'0 0.0
2019-Oct-16 06:29N 43°23' W 001°47'0 0.0
2019-Oct-16 05:59N 43°23' W 001°47'0 0.0
2019-Oct-16 05:29N 43°23' W 001°47'0 0.0
2019-Oct-16 04:59N 43°23' W 001°47'0 0.0
2019-Oct-16 04:29N 43°23' W 001°47'0 0.0
2019-Oct-16 03:59N 43°23' W 001°47'0 0.0
2019-Oct-16 03:29N 43°23' W 001°47'0 0.0
2019-Oct-16 02:59N 43°23' W 001°47'0 0.0
2019-Oct-16 02:29N 43°23' W 001°47'0 0.0
2019-Oct-16 01:56N 43°23' W 001°47'0 0.0
2019-Oct-16 01:29N 43°23' W 001°47'0 0.0
2019-Oct-16 00:59N 43°23' W 001°47'0 0.0
2019-Oct-16 00:29N 43°23' W 001°47'0 0.0
2019-Oct-15 23:59N 43°23' W 001°47'0 0.0
2019-Oct-15 23:29N 43°23' W 001°47'0 0.0
2019-Oct-15 22:59N 43°23' W 001°47'0 0.0
2019-Oct-15 22:29N 43°23' W 001°47'0 0.7
2019-Oct-15 22:01N 43°23' W 001°47'3 5.2
2019-Oct-15 21:30N 43°26' W 001°45'3 5.9
2019-Oct-15 21:00N 43°28' W 001°44'3 5.7
2019-Oct-15 20:30N 43°31' W 001°43'2 4.7
2019-Oct-15 20:00N 43°34' W 001°43'3 5.4
2019-Oct-15 19:30N 43°36' W 001°43'3 5.4
2019-Oct-15 19:00N 43°39' W 001°43'3 5.3
2019-Oct-15 18:31N 43°42' W 001°43'3 5.5
2019-Oct-15 18:00N 43°44' W 001°43'3 6.0
2019-Oct-15 17:30N 43°47' W 001°43'3 5.6
2019-Oct-15 17:00N 43°50' W 001°43'3 6.0
2019-Oct-15 16:30N 43°53' W 001°44'3 6.9
2019-Oct-15 16:00N 43°56' W 001°46'3 6.5
2019-Oct-15 15:30N 43°59' W 001°47'3 6.0
2019-Oct-15 15:00N 44°02' W 001°48'2 4.4
2019-Oct-15 14:30N 44°04' W 001°48'2 4.3
2019-Oct-15 14:00N 44°06' W 001°48'2 4.3
2019-Oct-15 13:30N 44°09' W 001°48'2 3.9
2019-Oct-15 13:00N 44°11' W 001°48'4 3.8
2019-Oct-15 12:03N 44°14' W 001°49'0 3.1
2019-Oct-15 11:55N 44°15' W 001°49'3 3.1
2019-Oct-15 10:59N 44°18' W 001°49'20 4.6
2019-Oct-15 06:37N 44°37' W 001°46'1 4.9
2019-Oct-15 06:30N 44°38' W 001°46'51 4.0
2019-Oct-14 17:43N 45°26' W 001°19'1 3.1
2019-Oct-14 17:25N 45°26' W 001°19'2 2.4
2019-Oct-14 16:47N 45°28' W 001°18'1 2.8
2019-Oct-14 16:26N 45°29' W 001°17'3 4.9
2019-Oct-14 15:47N 45°31' W 001°14'1 4.8
2019-Oct-14 15:30N 45°31' W 001°12'2 4.8
2019-Oct-14 15:00N 45°32' W 001°09'2 4.1
2019-Oct-14 14:30N 45°34' W 001°07'2 3.1
2019-Oct-14 14:00N 45°35' W 001°05'1 3.0
2019-Oct-14 13:30N 45°34' W 001°03'2 5.0
2019-Oct-14 13:00N 45°32' W 001°01'2 4.1
2019-Oct-14 12:30N 45°31' W 000°59'3 6.6
2019-Oct-14 12:00N 45°29' W 000°56'5 8.6
2019-Oct-14 11:29N 45°25' W 000°52'  

Dump ship's entire track history